Time;durP1;ratioP1;P1;durP2;ratioP2;P2;SDS_P1;SDS_P2;PMS_P1;PMS_P2;Temp;Humidity;BMP_temperature;BMP_pressure;BME280_temperature;BME280_humidity;BME280_pressure;Samples;Min_cycle;Max_cycle;Signal;HPM_P1;HPM_P2
2024/01/28 00:01:57;;;;;;;4.25;1.40;;;3.50;99.90;;;;;;4996005;28;20117;-73
2024/01/28 00:04:23;;;;;;;7.47;2.15;;;3.50;99.90;;;;;;5012554;28;20192;-73
2024/01/28 00:06:48;;;;;;;3.58;1.30;;;3.50;99.90;;;;;;4995853;28;20500;-73
2024/01/28 00:09:14;;;;;;;3.53;1.80;;;3.50;99.90;;;;;;5012196;28;20446;-73
2024/01/28 00:11:42;;;;;;;3.38;1.50;;;3.50;99.90;;;;;;5012327;28;20044;-73
2024/01/28 00:14:09;;;;;;;3.53;2.08;;;3.50;99.90;;;;;;5012293;28;20042;-73
2024/01/28 00:16:34;;;;;;;3.00;1.30;;;3.50;99.90;;;;;;5011862;28;20046;-73
2024/01/28 00:19:00;;;;;;;4.68;1.83;;;3.50;99.90;;;;;;5012018;28;20038;-73
2024/01/28 00:21:26;;;;;;;2.55;1.45;;;3.50;99.90;;;;;;5011830;28;20426;-73
2024/01/28 00:23:52;;;;;;;5.18;1.50;;;3.50;99.90;;;;;;5012129;28;20424;-73
2024/01/28 00:26:19;;;;;;;7.22;1.50;;;3.40;99.90;;;;;;4979530;28;20533;-73
2024/01/28 00:28:45;;;;;;;4.38;2.00;;;3.40;99.90;;;;;;5011565;28;20037;-73
2024/01/28 00:31:11;;;;;;;5.28;1.77;;;3.50;99.90;;;;;;5012153;28;20088;-73
2024/01/28 00:33:36;;;;;;;5.32;1.90;;;3.40;99.90;;;;;;5011659;28;20056;-73
2024/01/28 00:36:03;;;;;;;3.78;1.70;;;3.50;99.90;;;;;;5011738;28;20049;-73
2024/01/28 00:38:31;;;;;;;5.72;1.80;;;3.50;99.90;;;;;;5011582;28;20053;-73
2024/01/28 00:40:58;;;;;;;2.15;1.45;;;3.50;99.90;;;;;;5011638;28;20126;-73
2024/01/28 00:43:23;;;;;;;4.20;2.15;;;3.50;99.90;;;;;;4995516;28;20494;-73
2024/01/28 00:45:49;;;;;;;5.05;1.73;;;3.50;99.90;;;;;;5011410;28;20125;-73
2024/01/28 00:48:14;;;;;;;3.80;1.17;;;3.50;99.90;;;;;;5011563;28;20037;-73
2024/01/28 00:50:40;;;;;;;2.15;1.25;;;3.50;99.90;;;;;;5011561;28;20547;-73
2024/01/28 00:53:06;;;;;;;6.95;1.80;;;3.50;99.90;;;;;;5010548;28;20041;-73
2024/01/28 00:55:31;;;;;;;5.53;2.20;;;3.50;99.90;;;;;;5011415;28;20104;-73
2024/01/28 00:57:58;;;;;;;5.45;2.92;;;3.50;99.90;;;;;;5011078;28;20049;-73
2024/01/28 01:00:25;;;;;;;9.25;2.67;;;3.50;99.90;;;;;;5011310;28;20103;-73
2024/01/28 01:02:53;;;;;;;3.00;1.63;;;3.50;99.90;;;;;;5011052;28;20160;-73
2024/01/28 01:05:18;;;;;;;7.15;1.90;;;3.50;99.90;;;;;;5011033;28;20411;-73
2024/01/28 01:07:44;;;;;;;2.15;1.30;;;3.50;99.90;;;;;;5010951;28;20038;-73
2024/01/28 01:10:09;;;;;;;2.90;1.60;;;3.50;99.90;;;;;;5011200;28;20042;-73
2024/01/28 01:12:35;;;;;;;4.35;1.52;;;3.50;99.90;;;;;;5011180;28;20393;-73
2024/01/28 01:15:01;;;;;;;3.60;1.38;;;3.50;99.90;;;;;;4995012;28;20034;-73
2024/01/28 01:17:27;;;;;;;3.65;1.52;;;3.50;99.90;;;;;;5010868;28;20476;-73
2024/01/28 01:19:53;;;;;;;4.07;1.50;;;3.50;99.90;;;;;;4994263;28;20495;-74
2024/01/28 01:22:18;;;;;;;2.17;1.48;;;3.50;99.90;;;;;;4994835;28;20038;-73
2024/01/28 01:24:44;;;;;;;3.58;1.73;;;3.40;99.90;;;;;;5012114;28;20042;-73
2024/01/28 01:27:09;;;;;;;3.15;1.05;;;3.50;99.90;;;;;;5010766;28;20400;-73
2024/01/28 01:29:35;;;;;;;2.25;1.50;;;3.40;99.90;;;;;;5010619;28;20393;-73
2024/01/28 01:32:01;;;;;;;2.10;1.08;;;3.40;99.90;;;;;;5010696;28;20436;-73
2024/01/28 01:34:27;;;;;;;4.13;1.80;;;3.40;99.90;;;;;;5010764;28;20049;-73
2024/01/28 01:36:52;;;;;;;2.83;1.63;;;3.40;99.90;;;;;;5027134;28;20450;-73
2024/01/28 01:39:18;;;;;;;2.97;1.30;;;3.40;99.90;;;;;;5010379;28;20044;-73
2024/01/28 01:41:44;;;;;;;4.15;1.10;;;3.50;99.90;;;;;;5010505;28;20042;-73
2024/01/28 01:44:10;;;;;;;5.07;1.92;;;3.40;99.90;;;;;;5010661;28;20400;-73
2024/01/28 01:46:37;;;;;;;4.80;2.33;;;3.40;99.90;;;;;;5010297;28;20038;-73
2024/01/28 01:49:03;;;;;;;3.00;1.60;;;3.40;99.90;;;;;;5010100;28;20048;-73
2024/01/28 01:51:30;;;;;;;6.72;2.00;;;3.30;99.90;;;;;;5010269;28;20084;-73
2024/01/28 01:53:56;;;;;;;3.38;1.50;;;3.30;99.90;;;;;;4993795;28;20042;-73
2024/01/28 01:56:22;;;;;;;4.00;1.35;;;3.30;99.90;;;;;;5027013;28;20053;-73
2024/01/28 01:58:48;;;;;;;4.78;1.85;;;3.30;99.90;;;;;;5009912;28;20499;-73
2024/01/28 02:01:16;;;;;;;5.28;1.88;;;3.20;99.90;;;;;;5010086;28;20120;-73
2024/01/28 02:03:43;;;;;;;2.97;1.55;;;3.30;99.90;;;;;;5010212;28;20045;-73
2024/01/28 02:06:11;;;;;;;5.60;1.95;;;3.30;99.90;;;;;;4993914;28;20049;-73
2024/01/28 02:08:37;;;;;;;4.15;1.67;;;3.30;99.90;;;;;;4993599;28;20038;-73
2024/01/28 02:11:05;;;;;;;4.22;2.00;;;3.30;99.90;;;;;;5009942;28;20045;-73
2024/01/28 02:13:30;;;;;;;3.45;1.63;;;3.30;99.90;;;;;;5010003;28;20073;-73
2024/01/28 02:15:56;;;;;;;2.58;1.40;;;3.30;99.90;;;;;;5009753;28;20042;-73
2024/01/28 02:18:22;;;;;;;2.88;1.65;;;3.30;99.90;;;;;;5009783;28;20045;-73
2024/01/28 02:20:47;;;;;;;4.38;2.08;;;3.40;99.90;;;;;;5011355;28;20482;-73
2024/01/28 02:23:23;;;;;;;3.22;1.67;;;3.40;99.90;;;;;;5009831;28;20104;-73
2024/01/28 02:25:49;;;;;;;2.70;1.95;;;3.40;99.90;;;;;;4993823;28;20396;-73
2024/01/28 02:28:15;;;;;;;3.92;1.67;;;3.40;99.90;;;;;;5009339;28;20045;-73
2024/01/28 02:30:41;;;;;;;2.50;1.10;;;3.40;99.90;;;;;;5009754;28;20041;-73
2024/01/28 02:33:06;;;;;;;4.88;1.63;;;3.30;99.90;;;;;;5009923;28;20045;-73
2024/01/28 02:35:32;;;;;;;7.25;1.45;;;3.40;99.90;;;;;;5009977;28;20045;-73
2024/01/28 02:37:58;;;;;;;3.00;1.67;;;3.40;99.90;;;;;;5009983;28;20653;-73
2024/01/28 02:40:23;;;;;;;4.15;1.38;;;3.40;99.90;;;;;;5009674;28;20708;-73
2024/01/28 02:42:49;;;;;;;3.25;1.63;;;3.40;99.90;;;;;;5009393;28;20124;-73
2024/01/28 02:45:15;;;;;;;4.75;1.30;;;3.40;99.90;;;;;;5009492;28;20034;-73
2024/01/28 02:47:40;;;;;;;3.13;1.65;;;3.40;99.90;;;;;;5009883;28;20038;-73
2024/01/28 02:50:07;;;;;;;3.10;1.55;;;3.40;99.90;;;;;;5009688;28;20460;-73
2024/01/28 02:52:33;;;;;;;2.35;1.27;;;3.40;99.90;;;;;;5009725;28;20049;-73
2024/01/28 02:54:58;;;;;;;3.08;1.58;;;3.40;99.90;;;;;;5009533;28;20045;-73
2024/01/28 02:57:24;;;;;;;1.75;1.30;;;3.40;99.90;;;;;;5009418;28;20075;-73
2024/01/28 02:59:50;;;;;;;3.88;1.38;;;3.40;99.90;;;;;;5009091;28;20125;-73
2024/01/28 03:02:17;;;;;;;5.93;1.63;;;3.40;99.90;;;;;;4993424;28;20077;-73
2024/01/28 03:04:43;;;;;;;4.18;1.70;;;3.40;99.90;;;;;;5025980;28;20428;-73
2024/01/28 03:07:09;;;;;;;3.75;2.13;;;3.40;99.90;;;;;;5009835;28;20084;-73
2024/01/28 03:09:35;;;;;;;5.47;1.50;;;3.40;99.90;;;;;;5009371;28;20041;-73
2024/01/28 03:12:00;;;;;;;2.92;1.60;;;3.40;99.90;;;;;;5009458;28;20045;-72
2024/01/28 03:14:26;;;;;;;2.65;1.63;;;3.40;99.90;;;;;;5009184;28;20621;-72
2024/01/28 03:16:52;;;;;;;4.18;1.65;;;3.40;99.90;;;;;;5013108;28;20052;-73
2024/01/28 03:19:18;;;;;;;3.45;1.67;;;3.40;99.90;;;;;;5013164;28;20042;-73
2024/01/28 03:21:43;;;;;;;4.43;1.05;;;3.40;99.90;;;;;;5012954;28;20120;-72
2024/01/28 03:24:09;;;;;;;2.90;1.65;;;3.40;99.90;;;;;;4996909;28;20042;-72
2024/01/28 03:26:35;;;;;;;3.92;1.58;;;3.40;99.90;;;;;;5012796;28;20042;-73
2024/01/28 03:29:02;;;;;;;6.55;2.55;;;3.40;99.90;;;;;;5012957;28;20038;-73
2024/01/28 03:31:27;;;;;;;3.10;1.42;;;3.40;99.90;;;;;;5012855;28;20084;-73
2024/01/28 03:33:54;;;;;;;2.10;1.20;;;3.40;99.90;;;;;;5012976;28;20038;-73
2024/01/28 03:36:19;;;;;;;2.80;1.50;;;3.40;99.90;;;;;;4996800;28;20046;-73
2024/01/28 03:38:45;;;;;;;7.22;1.73;;;3.40;99.90;;;;;;5012691;28;20046;-73
2024/01/28 03:41:13;;;;;;;3.17;1.45;;;3.40;99.90;;;;;;5012747;28;20050;-73
2024/01/28 03:43:39;;;;;;;2.67;1.10;;;3.40;99.90;;;;;;4996674;28;20061;-73
2024/01/28 03:46:07;;;;;;;2.97;1.27;;;3.40;99.90;;;;;;5029295;28;20068;-73
2024/01/28 03:48:32;;;;;;;2.92;1.80;;;3.40;99.90;;;;;;5012517;28;20420;-73
2024/01/28 03:50:58;;;;;;;3.65;1.40;;;3.50;99.90;;;;;;5012320;28;20041;-73
2024/01/28 03:53:24;;;;;;;2.63;1.50;;;3.50;99.90;;;;;;5012851;28;20049;-73
2024/01/28 03:55:49;;;;;;;7.78;1.77;;;3.40;99.90;;;;;;5012189;28;20442;-73
2024/01/28 03:58:15;;;;;;;2.35;1.42;;;3.40;99.90;;;;;;5012399;28;20045;-73
2024/01/28 04:00:41;;;;;;;4.20;2.13;;;3.40;99.90;;;;;;5012509;28;20041;-73
2024/01/28 04:03:06;;;;;;;8.50;2.08;;;3.40;99.90;;;;;;5012608;28;20037;-73
2024/01/28 04:05:33;;;;;;;5.78;2.45;;;3.40;99.90;;;;;;5012552;28;20410;-73
2024/01/28 04:07:59;;;;;;;3.63;1.73;;;3.40;99.90;;;;;;5012172;28;20045;-73
2024/01/28 04:10:25;;;;;;;3.75;1.77;;;3.40;99.90;;;;;;4995806;28;20046;-73
2024/01/28 04:12:50;;;;;;;4.40;2.13;;;3.40;99.90;;;;;;5011920;28;20048;-73
2024/01/28 04:15:16;;;;;;;4.00;1.98;;;3.40;99.90;;;;;;5012127;28;20052;-73
2024/01/28 04:17:42;;;;;;;3.60;1.50;;;3.40;99.90;;;;;;5012464;28;20103;-73
2024/01/28 04:20:08;;;;;;;5.63;1.80;;;3.40;99.90;;;;;;5012005;28;20048;-73
2024/01/28 04:22:34;;;;;;;3.10;1.70;;;3.30;99.90;;;;;;5012368;28;20521;-73
2024/01/28 04:25:00;;;;;;;4.82;2.00;;;3.30;99.90;;;;;;5011811;28;20458;-73
2024/01/28 04:27:26;;;;;;;5.00;1.95;;;3.30;99.90;;;;;;5011794;28;20064;-73
2024/01/28 04:29:51;;;;;;;8.15;1.67;;;3.30;99.90;;;;;;5011761;28;20084;-73
2024/01/28 04:32:17;;;;;;;2.90;1.65;;;3.30;99.90;;;;;;5011814;28;20069;-73
2024/01/28 04:34:43;;;;;;;5.07;1.50;;;3.30;99.90;;;;;;4995617;28;20056;-73
2024/01/28 04:37:08;;;;;;;6.03;1.77;;;3.30;99.90;;;;;;4995764;28;20093;-73
2024/01/28 04:39:35;;;;;;;4.80;1.75;;;3.30;99.90;;;;;;5011479;28;20546;-73
2024/01/28 04:42:01;;;;;;;4.57;2.15;;;3.30;99.90;;;;;;4995042;28;20454;-73
2024/01/28 04:44:26;;;;;;;4.28;1.75;;;3.20;99.90;;;;;;5011834;28;20046;-73
2024/01/28 04:46:52;;;;;;;6.63;2.03;;;3.20;99.90;;;;;;5011851;28;20091;-73
2024/01/28 04:49:19;;;;;;;6.07;1.70;;;3.20;99.90;;;;;;5011520;28;20518;-73
2024/01/28 04:51:45;;;;;;;3.47;1.58;;;3.20;99.90;;;;;;5011481;28;20053;-73
2024/01/28 04:54:12;;;;;;;3.00;1.30;;;3.20;99.90;;;;;;5011242;28;20048;-73
2024/01/28 04:56:38;;;;;;;3.92;1.60;;;3.10;99.90;;;;;;5011521;28;20041;-73
2024/01/28 04:59:04;;;;;;;3.22;1.25;;;3.10;99.90;;;;;;5011269;28;20038;-73
2024/01/28 05:01:30;;;;;;;4.50;1.90;;;3.10;99.90;;;;;;5011115;28;20048;-73
2024/01/28 05:03:55;;;;;;;3.90;1.77;;;3.10;99.90;;;;;;5011107;28;20034;-73
2024/01/28 05:06:21;;;;;;;4.85;1.05;;;3.10;99.90;;;;;;5011276;28;20038;-73
2024/01/28 05:08:47;;;;;;;3.55;1.67;;;3.10;99.90;;;;;;4994436;28;20049;-73
2024/01/28 05:11:12;;;;;;;3.08;1.17;;;3.10;99.90;;;;;;5011029;28;20042;-73
2024/01/28 05:13:40;;;;;;;2.60;1.17;;;3.00;99.90;;;;;;5011417;28;20049;-73
2024/01/28 05:16:05;;;;;;;2.03;1.60;;;3.00;99.90;;;;;;5010839;28;20045;-73
2024/01/28 05:18:31;;;;;;;2.10;1.25;;;3.00;99.90;;;;;;5011106;28;20038;-73
2024/01/28 05:20:57;;;;;;;2.42;1.90;;;3.00;99.90;;;;;;5010644;28;20060;-73
2024/01/28 05:23:22;;;;;;;2.45;1.30;;;3.00;99.90;;;;;;5010815;28;20092;-73
2024/01/28 05:25:48;;;;;;;3.70;1.45;;;3.00;99.90;;;;;;5010608;28;20041;-73
2024/01/28 05:28:14;;;;;;;6.72;1.70;;;3.00;99.90;;;;;;5010789;28;20034;-73
2024/01/28 05:30:40;;;;;;;3.28;1.42;;;2.90;99.90;;;;;;5010706;28;20038;-73
2024/01/28 05:33:05;;;;;;;6.47;1.63;;;2.90;99.90;;;;;;5010917;28;20038;-73
2024/01/28 05:35:32;;;;;;;2.83;1.55;;;2.90;99.90;;;;;;5010679;28;20121;-73
2024/01/28 05:37:59;;;;;;;5.03;1.67;;;2.90;99.90;;;;;;5009828;28;20292;-73
2024/01/28 05:40:25;;;;;;;3.10;1.27;;;2.90;99.90;;;;;;5010479;28;20049;-73
2024/01/28 05:42:50;;;;;;;2.88;1.52;;;2.80;99.90;;;;;;5010590;28;20037;-73
2024/01/28 05:45:16;;;;;;;4.57;1.40;;;2.80;99.90;;;;;;5010525;28;20488;-73
2024/01/28 05:47:41;;;;;;;1.92;1.05;;;2.80;99.90;;;;;;5010610;28;20038;-73
2024/01/28 05:50:08;;;;;;;5.03;1.27;;;2.80;99.90;;;;;;5026886;28;20100;-73
2024/01/28 05:52:33;;;;;;;4.40;2.00;;;2.80;99.90;;;;;;5010008;28;20045;-73
2024/01/28 05:54:59;;;;;;;5.05;2.08;;;2.80;99.90;;;;;;5010546;28;20045;-73
2024/01/28 05:57:25;;;;;;;2.90;1.23;;;2.80;99.90;;;;;;5010605;28;20088;-73
2024/01/28 05:59:50;;;;;;;2.50;1.58;;;2.80;99.90;;;;;;5010159;28;20389;-73
2024/01/28 06:02:16;;;;;;;3.85;1.50;;;2.80;99.90;;;;;;5010074;28;20046;-73
2024/01/28 06:04:42;;;;;;;1.88;1.15;;;2.90;99.90;;;;;;5010668;28;20044;-73
2024/01/28 06:07:08;;;;;;;3.63;1.73;;;2.90;99.90;;;;;;5010100;28;20506;-73
2024/01/28 06:09:33;;;;;;;2.55;1.20;;;2.90;99.90;;;;;;5010060;28;20081;-73
2024/01/28 06:12:00;;;;;;;3.20;1.15;;;2.90;99.90;;;;;;5009809;28;20398;-73
2024/01/28 06:14:27;;;;;;;2.80;1.27;;;2.90;99.90;;;;;;4993874;28;20099;-73
2024/01/28 06:16:52;;;;;;;3.83;1.48;;;2.90;99.90;;;;;;5009889;28;20045;-73
2024/01/28 06:19:18;;;;;;;4.30;1.83;;;2.80;99.90;;;;;;5009898;28;20045;-73
2024/01/28 06:21:44;;;;;;;4.30;1.50;;;2.90;99.90;;;;;;5009534;28;20034;-73
2024/01/28 06:24:09;;;;;;;4.45;1.65;;;2.80;99.90;;;;;;5010108;28;20095;-73
2024/01/28 06:26:37;;;;;;;2.83;1.30;;;2.80;99.90;;;;;;5009661;28;20072;-73
2024/01/28 06:29:03;;;;;;;4.85;1.65;;;2.80;99.90;;;;;;5009783;28;20491;-73
2024/01/28 06:31:28;;;;;;;5.50;1.50;;;2.80;99.90;;;;;;5009669;28;20053;-73
2024/01/28 06:33:54;;;;;;;2.30;1.23;;;2.80;99.90;;;;;;5009997;28;20041;-73
2024/01/28 06:36:21;;;;;;;6.68;1.60;;;2.90;99.90;;;;;;5009564;28;20049;-73
2024/01/28 06:38:47;;;;;;;2.95;1.48;;;2.90;99.90;;;;;;5009613;28;20491;-73
2024/01/28 06:41:16;;;;;;;2.72;1.45;;;2.90;99.90;;;;;;5009812;28;20048;-73
2024/01/28 06:43:42;;;;;;;4.43;1.77;;;2.90;99.90;;;;;;5009706;28;20052;-73
2024/01/28 06:46:08;;;;;;;3.55;1.38;;;2.80;99.90;;;;;;4993415;28;20125;-73
2024/01/28 06:48:34;;;;;;;2.80;1.60;;;2.80;99.90;;;;;;4993548;28;20092;-73
2024/01/28 06:51:03;;;;;;;6.07;2.03;;;2.80;99.90;;;;;;4995662;28;20045;-73
2024/01/28 06:53:29;;;;;;;5.32;2.42;;;2.70;99.90;;;;;;5013861;28;20152;-73
2024/01/28 06:55:55;;;;;;;3.38;1.80;;;2.70;99.90;;;;;;5013515;28;20535;-73
2024/01/28 06:58:20;;;;;;;3.90;1.75;;;2.60;99.90;;;;;;5013543;28;20034;-73
2024/01/28 07:00:46;;;;;;;4.75;2.03;;;2.60;99.90;;;;;;5013537;28;20396;-73
2024/01/28 07:03:11;;;;;;;3.05;1.60;;;2.60;99.90;;;;;;4997237;28;20042;-73
2024/01/28 07:05:38;;;;;;;2.90;1.67;;;2.60;99.90;;;;;;5013443;28;20044;-73
2024/01/28 07:08:05;;;;;;;4.00;2.28;;;2.60;99.90;;;;;;4996920;28;20510;-73
2024/01/28 07:10:32;;;;;;;3.72;1.90;;;2.60;99.90;;;;;;5013509;28;20129;-73
2024/01/28 07:12:58;;;;;;;3.85;2.00;;;2.60;99.90;;;;;;4997040;28;20511;-73
2024/01/28 07:15:24;;;;;;;3.65;1.70;;;2.60;99.90;;;;;;5013569;28;20516;-73
2024/01/28 07:17:49;;;;;;;3.03;1.77;;;2.60;99.90;;;;;;5013121;28;20080;-73
2024/01/28 07:20:16;;;;;;;4.68;1.95;;;2.60;99.90;;;;;;5012878;28;20376;-73
2024/01/28 07:22:42;;;;;;;5.90;2.30;;;2.60;99.90;;;;;;5013147;28;20038;-73
2024/01/28 07:25:08;;;;;;;7.43;2.00;;;2.60;99.90;;;;;;5013305;28;20080;-73
2024/01/28 07:27:34;;;;;;;3.90;2.17;;;2.60;99.90;;;;;;5013076;28;20121;-73
2024/01/28 07:29:59;;;;;;;4.53;1.52;;;2.60;99.90;;;;;;5013286;28;20141;-73
2024/01/28 07:32:25;;;;;;;4.72;2.03;;;2.50;99.90;;;;;;5013091;28;20049;-73
2024/01/28 07:34:50;;;;;;;4.72;1.40;;;2.50;99.90;;;;;;5012584;28;20057;-73
2024/01/28 07:37:16;;;;;;;3.78;1.55;;;2.60;99.90;;;;;;5012849;28;20053;-73
2024/01/28 07:39:42;;;;;;;4.68;2.05;;;2.60;99.90;;;;;;5012905;28;20045;-73
2024/01/28 07:42:07;;;;;;;3.40;1.85;;;2.60;99.90;;;;;;4996487;28;20404;-73
2024/01/28 07:44:34;;;;;;;4.35;1.75;;;2.50;99.90;;;;;;5012678;28;20076;-73
2024/01/28 07:47:00;;;;;;;5.00;2.42;;;2.50;99.90;;;;;;5012748;28;20077;-73
2024/01/28 07:49:26;;;;;;;5.95;2.55;;;2.50;99.90;;;;;;5012573;28;20045;-73
2024/01/28 07:51:52;;;;;;;3.20;1.90;;;2.50;99.90;;;;;;5012531;28;20041;-73
2024/01/28 07:54:18;;;;;;;3.05;1.80;;;2.40;99.90;;;;;;5012436;28;20041;-73
2024/01/28 07:56:44;;;;;;;7.10;1.70;;;2.40;99.90;;;;;;5012453;28;20046;-73
2024/01/28 07:59:10;;;;;;;3.28;1.52;;;2.40;99.90;;;;;;5012590;28;20053;-73
2024/01/28 08:01:35;;;;;;;4.78;1.77;;;2.40;99.90;;;;;;5011900;28;20034;-73
2024/01/28 08:04:01;;;;;;;4.22;1.67;;;2.40;99.90;;;;;;5012103;28;20074;-73
2024/01/28 08:06:27;;;;;;;3.95;2.13;;;2.30;99.90;;;;;;5012394;28;20044;-73
2024/01/28 08:08:53;;;;;;;4.90;1.70;;;2.40;99.90;;;;;;5012235;28;20042;-73
2024/01/28 08:11:18;;;;;;;3.67;1.50;;;2.40;99.90;;;;;;5012184;28;20042;-73
2024/01/28 08:13:45;;;;;;;7.80;1.92;;;2.40;99.90;;;;;;5012055;28;20042;-73
2024/01/28 08:16:10;;;;;;;12.00;1.90;;;2.50;99.90;;;;;;5012313;28;20121;-73
2024/01/28 08:18:38;;;;;;;3.58;1.83;;;2.50;99.90;;;;;;5012010;28;20140;-73
2024/01/28 08:21:05;;;;;;;3.72;1.70;;;2.50;99.90;;;;;;5012033;28;20053;-73
2024/01/28 08:23:30;;;;;;;3.55;1.55;;;2.50;99.90;;;;;;5012145;28;20143;-73
2024/01/28 08:25:56;;;;;;;3.90;1.58;;;2.50;99.90;;;;;;5011868;28;20660;-73
2024/01/28 08:28:22;;;;;;;7.60;2.05;;;2.60;99.90;;;;;;5011700;28;20112;-73
2024/01/28 08:30:48;;;;;;;4.13;2.38;;;2.60;99.90;;;;;;5012040;28;20305;-73
2024/01/28 08:33:14;;;;;;;5.00;1.92;;;2.60;99.90;;;;;;5011563;28;20573;-73
2024/01/28 08:35:40;;;;;;;3.15;1.48;;;2.70;99.90;;;;;;5012089;28;20038;-73
2024/01/28 08:38:05;;;;;;;4.53;1.95;;;2.70;99.90;;;;;;5011977;28;20095;-73
2024/01/28 08:40:31;;;;;;;7.85;1.73;;;2.70;99.90;;;;;;5011705;28;20102;-73
2024/01/28 08:42:57;;;;;;;3.95;1.40;;;2.70;99.90;;;;;;5011798;28;20042;-73
2024/01/28 08:45:23;;;;;;;3.75;1.20;;;2.80;99.90;;;;;;5011603;28;20045;-73
2024/01/28 08:47:49;;;;;;;3.40;1.52;;;2.80;99.90;;;;;;5011468;28;20046;-73
2024/01/28 08:50:15;;;;;;;2.50;1.45;;;2.80;99.90;;;;;;5011790;28;20049;-73
2024/01/28 08:52:42;;;;;;;3.40;1.92;;;2.80;99.90;;;;;;4995541;28;20033;-73
2024/01/28 08:55:08;;;;;;;5.63;1.10;;;2.80;99.90;;;;;;4995350;28;20054;-73
2024/01/28 08:57:34;;;;;;;2.17;1.25;;;2.80;99.90;;;;;;5011360;28;20125;-73
2024/01/28 09:00:00;;;;;;;3.65;1.48;;;2.90;99.90;;;;;;5011085;28;20507;-73
2024/01/28 09:02:26;;;;;;;3.67;1.50;;;2.90;99.90;;;;;;5011485;28;20100;-73
2024/01/28 09:04:52;;;;;;;2.15;0.90;;;2.90;99.90;;;;;;5011022;28;20037;-73
2024/01/28 09:07:17;;;;;;;4.45;1.40;;;3.00;99.90;;;;;;5011260;28;20038;-73
2024/01/28 09:09:43;;;;;;;7.38;2.00;;;3.00;99.90;;;;;;5011201;28;20041;-73
2024/01/28 09:12:09;;;;;;;2.25;0.98;;;3.00;99.90;;;;;;5010726;28;20045;-73
2024/01/28 09:14:35;;;;;;;4.38;1.30;;;3.00;99.90;;;;;;5010779;28;20392;-73
2024/01/28 09:17:02;;;;;;;4.18;1.13;;;3.10;99.90;;;;;;5010836;28;20048;-73
2024/01/28 09:19:27;;;;;;;4.10;1.40;;;3.10;99.90;;;;;;4994514;28;20048;-73
2024/01/28 09:21:54;;;;;;;2.22;1.30;;;3.10;99.90;;;;;;5011250;28;20042;-73
2024/01/28 09:24:19;;;;;;;3.38;1.58;;;3.10;99.90;;;;;;5010820;28;20034;-73
2024/01/28 09:26:45;;;;;;;1.77;1.17;;;3.10;99.90;;;;;;4994381;28;20057;-73
2024/01/28 09:29:10;;;;;;;3.10;1.05;;;3.20;99.90;;;;;;5010699;28;20084;-73
2024/01/28 09:31:36;;;;;;;2.78;1.23;;;3.20;99.90;;;;;;5010767;28;20081;-73
2024/01/28 09:34:02;;;;;;;1.75;1.00;;;3.20;99.90;;;;;;5010557;28;20041;-73
2024/01/28 09:36:27;;;;;;;4.88;1.38;;;3.20;99.90;;;;;;5010869;28;20435;-73
2024/01/28 09:38:53;;;;;;;2.22;1.10;;;3.30;99.90;;;;;;4994376;28;20572;-73
2024/01/28 09:41:24;;;;;;;3.97;1.10;;;3.30;99.90;;;;;;5010580;28;20472;-73
2024/01/28 09:43:50;;;;;;;3.08;1.05;;;3.40;99.90;;;;;;5010360;28;20487;-73
2024/01/28 09:46:16;;;;;;;4.32;1.48;;;3.40;99.90;;;;;;4994050;28;20045;-73
2024/01/28 09:48:46;;;;;;;2.00;0.85;;;3.50;99.90;;;;;;5010643;28;20046;-73
2024/01/28 09:51:12;;;;;;;2.45;1.02;;;3.50;99.90;;;;;;5010388;28;20515;-73
2024/01/28 09:53:40;;;;;;;2.88;0.88;;;3.50;99.90;;;;;;4994274;28;20072;-73
2024/01/28 09:56:10;;;;;;;2.67;1.20;;;3.60;99.90;;;;;;5010268;28;20042;-73
2024/01/28 09:58:37;;;;;;;2.70;0.90;;;3.60;99.90;;;;;;4993879;28;20046;-73
2024/01/28 10:01:04;;;;;;;2.10;0.90;;;3.70;99.90;;;;;;4994261;28;20045;-73
2024/01/28 10:03:31;;;;;;;1.90;0.98;;;3.70;99.90;;;;;;5010490;28;20447;-73
2024/01/28 10:05:57;;;;;;;3.28;1.10;;;3.80;99.90;;;;;;5010117;28;20399;-73
2024/01/28 10:08:25;;;;;;;6.05;1.20;;;3.80;99.90;;;;;;5010273;28;20034;-73
2024/01/28 10:10:54;;;;;;;1.65;0.75;;;3.90;99.90;;;;;;4993547;28;20484;-73
2024/01/28 10:13:19;;;;;;;3.42;1.38;;;3.90;99.90;;;;;;5009957;28;20125;-73
2024/01/28 10:15:54;;;;;;;1.55;0.70;;;4.00;99.90;;;;;;5010015;28;20128;-73
2024/01/28 10:18:25;;;;;;;3.00;1.40;;;4.00;99.90;;;;;;4993644;28;20033;-73
2024/01/28 10:20:51;;;;;;;3.05;1.15;;;4.10;99.90;;;;;;5010070;28;20034;-74
2024/01/28 10:23:17;;;;;;;1.33;1.00;;;4.20;99.90;;;;;;5010009;28;20034;-73
2024/01/28 10:25:44;;;;;;;1.77;0.70;;;4.20;99.90;;;;;;5009660;28;20103;-73
2024/01/28 10:28:10;;;;;;;4.35;1.27;;;4.30;99.90;;;;;;5009758;28;20076;-73
2024/01/28 10:30:35;;;;;;;2.58;0.57;;;4.30;99.90;;;;;;5009831;28;20070;-73
2024/01/28 10:33:01;;;;;;;1.80;0.80;;;4.40;99.90;;;;;;5009752;28;20128;-73
2024/01/28 10:35:28;;;;;;;1.13;0.68;;;4.40;99.90;;;;;;5009708;28;20046;-73
2024/01/28 10:37:55;;;;;;;2.67;0.90;;;4.40;99.90;;;;;;5010059;28;20037;-73
2024/01/28 10:40:23;;;;;;;2.60;0.73;;;4.50;99.90;;;;;;5009610;28;20042;-73
2024/01/28 10:42:49;;;;;;;2.35;0.90;;;4.50;99.90;;;;;;5009794;28;20129;-73
2024/01/28 10:45:18;;;;;;;1.27;0.65;;;4.60;99.90;;;;;;5009703;28;20057;-73
2024/01/28 10:48:07;;;;;;;2.58;1.05;;;4.60;99.90;;;;;;5009975;28;20034;-73
2024/01/28 10:50:34;;;;;;;2.00;0.95;;;4.70;99.90;;;;;;5009671;28;20407;-73
2024/01/28 10:53:03;;;;;;;2.67;0.93;;;4.70;99.90;;;;;;5009802;28;20080;-73
2024/01/28 10:55:30;;;;;;;3.15;1.15;;;4.70;99.90;;;;;;5009669;28;20050;-73
2024/01/28 10:57:56;;;;;;;1.58;0.63;;;4.70;99.90;;;;;;4993184;28;20046;-73
2024/01/28 11:00:22;;;;;;;2.33;0.65;;;4.70;99.90;;;;;;5009467;28;20375;-73
2024/01/28 11:02:49;;;;;;;1.58;0.70;;;4.80;99.90;;;;;;5009496;28;20121;-73
2024/01/28 11:05:16;;;;;;;1.85;0.80;;;4.80;99.90;;;;;;5009114;28;20042;-73
2024/01/28 11:07:42;;;;;;;2.38;0.80;;;4.80;99.90;;;;;;5009887;28;20396;-74
2024/01/28 11:10:09;;;;;;;2.80;0.98;;;4.90;99.90;;;;;;4993496;28;20124;-73
2024/01/28 11:12:36;;;;;;;1.35;0.70;;;4.90;99.90;;;;;;5009484;28;20046;-73
2024/01/28 11:15:02;;;;;;;1.83;0.80;;;4.90;99.90;;;;;;5009392;28;20037;-73
2024/01/28 11:17:37;;;;;;;1.92;0.90;;;4.90;99.90;;;;;;5009119;28;20045;-73
2024/01/28 11:20:10;;;;;;;;;;;5.00;99.90;;;;;;5009779;28;20488;-73
2024/01/28 11:22:48;;;;;;;1.40;0.70;;;5.00;99.90;;;;;;5009643;28;19940;-73
2024/01/28 11:25:20;;;;;;;1.15;0.80;;;5.00;99.90;;;;;;4993179;28;20041;-73
2024/01/28 11:27:50;;;;;;;1.67;0.60;;;5.00;99.90;;;;;;5009348;28;20045;-73
2024/01/28 11:30:21;;;;;;;4.57;0.98;;;5.00;99.90;;;;;;5009060;28;20042;-73
2024/01/28 11:32:47;;;;;;;4.18;0.70;;;5.10;99.90;;;;;;4992987;28;20045;-73
2024/01/28 11:35:13;;;;;;;1.63;0.95;;;5.10;99.90;;;;;;5009132;28;20038;-73
2024/01/28 11:37:52;;;;;;;2.10;0.95;;;5.10;99.90;;;;;;5012841;28;20507;-73
2024/01/28 11:40:23;;;;;;;1.80;0.70;;;5.10;99.90;;;;;;5012843;28;20056;-73
2024/01/28 11:42:53;;;;;;;1.40;0.90;;;5.20;99.90;;;;;;5012872;28;20080;-73
2024/01/28 11:45:22;;;;;;;2.70;1.48;;;5.20;99.90;;;;;;5012846;28;20048;-74
2024/01/28 11:47:48;;;;;;;2.00;0.80;;;5.30;99.90;;;;;;5012791;28;20121;-73
2024/01/28 11:50:15;;;;;;;2.00;0.95;;;5.30;99.90;;;;;;5012647;28;20181;-73
2024/01/28 11:52:42;;;;;;;2.78;1.00;;;5.30;99.90;;;;;;5012846;28;20046;-74
2024/01/28 11:55:16;;;;;;;2.80;0.80;;;5.40;99.90;;;;;;4996401;28;20045;-73
2024/01/28 11:57:44;;;;;;;2.42;1.08;;;5.40;99.90;;;;;;5012887;28;20129;-73
2024/01/28 12:00:11;;;;;;;1.77;0.68;;;5.50;99.90;;;;;;5012522;28;20045;-73
2024/01/28 12:02:38;;;;;;;2.83;1.00;;;5.50;99.90;;;;;;5012462;28;20042;-73
2024/01/28 12:05:05;;;;;;;3.70;0.98;;;5.50;99.90;;;;;;4996176;28;20120;-73
2024/01/28 12:07:33;;;;;;;1.85;1.00;;;5.60;99.90;;;;;;4995727;28;20125;-73
2024/01/28 12:10:06;;;;;;;2.00;1.00;;;5.60;99.90;;;;;;5012247;28;20151;-73
2024/01/28 12:12:34;;;;;;;1.48;1.00;;;5.60;99.90;;;;;;5012669;28;20431;-73
2024/01/28 12:15:02;;;;;;;3.75;1.20;;;5.60;99.90;;;;;;5012115;28;20038;-73
2024/01/28 12:17:28;;;;;;;3.88;0.88;;;5.60;99.90;;;;;;5012062;28;20129;-73
2024/01/28 12:19:53;;;;;;;1.65;1.00;;;5.60;99.90;;;;;;5011977;28;20460;-73
2024/01/28 12:22:19;;;;;;;2.00;0.93;;;5.70;99.90;;;;;;5011868;28;20034;-73
2024/01/28 12:24:48;;;;;;;2.72;0.90;;;5.70;99.90;;;;;;5012094;28;20096;-74
2024/01/28 12:27:14;;;;;;;1.73;0.57;;;5.70;99.90;;;;;;5028235;28;20117;-73
2024/01/28 12:29:41;;;;;;;0.70;0.50;;;5.80;99.90;;;;;;5012105;28;20081;-73
2024/01/28 12:32:08;;;;;;;2.08;1.00;;;5.80;99.90;;;;;;4995820;28;20041;-73
2024/01/28 12:34:35;;;;;;;1.23;0.70;;;5.80;99.90;;;;;;5011837;28;20496;-73
2024/01/28 12:37:02;;;;;;;1.42;0.85;;;5.80;99.90;;;;;;5028022;28;20525;-73
2024/01/28 12:39:27;;;;;;;1.25;0.55;;;5.80;99.90;;;;;;5011752;28;20124;-74
2024/01/28 12:41:53;;;;;;;1.17;0.68;;;5.90;99.90;;;;;;5011810;28;20046;-73
2024/01/28 12:44:19;;;;;;;1.45;0.60;;;5.90;99.90;;;;;;5011753;28;20073;-73
2024/01/28 12:46:44;;;;;;;2.15;0.77;;;5.90;99.90;;;;;;5011178;28;20403;-72
2024/01/28 12:49:10;;;;;;;1.10;0.70;;;5.90;99.90;;;;;;5010649;28;20038;-73
2024/01/28 12:51:37;;;;;;;2.22;0.95;;;6.00;99.90;;;;;;4995247;28;20121;-73
2024/01/28 12:54:02;;;;;;;4.15;1.30;;;6.00;99.90;;;;;;5011351;28;20144;-73